Time;durP1;ratioP1;P1;durP2;ratioP2;P2;SDS_P1;SDS_P2;PMS_P1;PMS_P2;Temp;Humidity;BMP_temperature;BMP_pressure;BME280_temperature;BME280_humidity;BME280_pressure;Samples;Min_cycle;Max_cycle;Signal;HPM_P1;HPM_P2
2021/03/21 00:02:00;;;;;;;313.63;189.40;;;18.10;42.10;;;;;;5034274;28;20021;-67
2021/03/21 00:04:25;;;;;;;304.90;181.77;;;18.10;41.40;;;;;;5034145;28;20120;-70
2021/03/21 00:06:51;;;;;;;296.15;176.80;;;18.00;41.40;;;;;;5042429;28;20104;-66
2021/03/21 00:09:17;;;;;;;286.92;169.75;;;18.00;41.40;;;;;;5044946;28;20017;-65
2021/03/21 00:11:43;;;;;;;275.60;159.77;;;18.00;41.50;;;;;;5043466;28;20026;-65
2021/03/21 00:14:09;;;;;;;275.65;158.75;;;18.00;41.60;;;;;;5043558;28;20531;-64
2021/03/21 00:16:35;;;;;;;276.00;159.77;;;18.00;41.60;;;;;;5044680;28;20388;-65
2021/03/21 00:19:03;;;;;;;254.95;152.02;;;17.90;41.70;;;;;;5043463;28;20753;-65
2021/03/21 00:21:29;;;;;;;254.60;145.68;;;18.00;41.70;;;;;;5043410;28;20053;-67
2021/03/21 00:23:54;;;;;;;254.60;147.82;;;18.10;41.50;;;;;;5044697;28;20071;-68
2021/03/21 00:26:20;;;;;;;246.32;142.93;;;18.10;41.30;;;;;;5042911;28;20067;-66
2021/03/21 00:28:46;;;;;;;237.10;142.07;;;18.20;41.40;;;;;;5043826;28;20540;-67
2021/03/21 00:31:14;;;;;;;224.55;135.80;;;18.20;41.40;;;;;;5044205;28;20021;-67
2021/03/21 00:33:41;;;;;;;225.07;130.73;;;18.20;41.50;;;;;;5040383;28;20025;-67
2021/03/21 00:36:12;;;;;;;218.48;129.38;;;18.20;41.40;;;;;;5043442;28;20024;-66
2021/03/21 00:38:41;;;;;;;214.85;127.18;;;18.10;41.50;;;;;;5044696;28;20112;-69
2021/03/21 00:41:09;;;;;;;206.02;122.05;;;18.00;41.70;;;;;;5043708;28;20386;-66
2021/03/21 00:43:35;;;;;;;194.55;121.07;;;18.00;41.80;;;;;;5042025;28;20037;-66
2021/03/21 00:46:01;;;;;;;198.65;117.18;;;17.90;42.00;;;;;;5044276;28;20422;-65
2021/03/21 00:48:34;;;;;;;190.30;115.25;;;17.90;42.10;;;;;;5043247;28;20026;-67
2021/03/21 00:51:00;;;;;;;194.95;113.72;;;17.80;42.10;;;;;;5039875;28;20025;-66
2021/03/21 00:53:26;;;;;;;191.75;110.47;;;17.80;42.30;;;;;;5043081;28;20057;-66
2021/03/21 00:55:52;;;;;;;187.52;111.32;;;17.70;42.30;;;;;;5043814;28;20025;-65
2021/03/21 00:58:18;;;;;;;178.93;108.40;;;17.80;42.40;;;;;;5042276;28;20022;-66
2021/03/21 01:00:47;;;;;;;170.05;105.32;;;17.70;42.40;;;;;;5043642;28;20529;-67
2021/03/21 01:03:13;;;;;;;175.93;103.88;;;17.60;42.50;;;;;;5042639;28;20035;-65
2021/03/21 01:05:41;;;;;;;161.10;99.35;;;17.60;42.70;;;;;;5039265;28;20426;-67
2021/03/21 01:08:17;;;;;;;158.27;96.55;;;17.60;42.90;;;;;;5042770;28;20357;-65
2021/03/21 01:10:43;;;;;;;154.35;92.80;;;17.60;43.00;;;;;;5039850;28;20038;-65
2021/03/21 01:13:09;;;;;;;162.63;94.85;;;17.60;43.10;;;;;;5042693;28;20017;-64
2021/03/21 01:15:34;;;;;;;153.52;92.20;;;17.50;43.30;;;;;;5043994;28;20422;-65
2021/03/21 01:18:00;;;;;;;151.77;91.20;;;17.50;43.30;;;;;;5042003;28;20025;-65
2021/03/21 01:20:28;;;;;;;185.35;112.05;;;17.50;43.30;;;;;;5042703;28;20427;-67
2021/03/21 01:22:54;;;;;;;238.73;141.13;;;17.60;43.40;;;;;;5043464;28;20154;-67
2021/03/21 01:25:29;;;;;;;246.40;144.73;;;17.50;43.30;;;;;;5041883;28;20389;-66
2021/03/21 01:27:58;;;;;;;232.02;139.02;;;17.50;44.00;;;;;;5041431;28;20531;-67
2021/03/21 01:30:27;;;;;;;269.70;155.63;;;17.50;44.00;;;;;;5043056;28;20029;-67
2021/03/21 01:32:53;;;;;;;267.85;158.57;;;17.50;43.40;;;;;;5043209;28;20021;-68
2021/03/21 01:35:20;;;;;;;249.65;150.80;;;17.50;43.50;;;;;;5037469;28;20104;-67
2021/03/21 01:37:46;;;;;;;221.43;125.65;;;17.50;43.60;;;;;;5047542;28;20028;-67
2021/03/21 01:40:15;;;;;;;130.45;82.18;;;17.40;42.80;;;;;;5054447;28;20036;-66
2021/03/21 01:42:43;;;;;;;105.55;65.90;;;17.10;39.70;;;;;;5053949;28;20087;-67
2021/03/21 01:45:33;;;;;;;116.05;67.72;;;16.60;38.80;;;;;;5053782;28;20072;-62
2021/03/21 01:48:02;;;;;;;96.15;56.92;;;16.50;40.80;;;;;;5052634;28;20064;-62
2021/03/21 01:50:42;;;;;;;91.53;53.95;;;16.60;39.70;;;;;;5044845;28;20052;-62
2021/03/21 01:53:09;;;;;;;88.03;54.00;;;16.70;39.30;;;;;;5039569;28;20046;-62
2021/03/21 01:55:36;;;;;;;98.57;57.42;;;16.80;39.60;;;;;;5041720;28;20440;-62
2021/03/21 01:58:02;;;;;;;93.88;56.97;;;16.80;39.70;;;;;;5043050;28;20025;-62
2021/03/21 02:00:28;;;;;;;96.03;57.28;;;17.00;40.00;;;;;;5041499;28;20075;-62
2021/03/21 02:02:54;;;;;;;94.45;58.05;;;17.10;40.80;;;;;;5041720;28;20457;-61
2021/03/21 02:05:20;;;;;;;99.72;58.03;;;17.20;40.30;;;;;;5042839;28;20485;-62
2021/03/21 02:08:10;;;;;;;95.38;55.90;;;17.30;40.30;;;;;;5040150;28;20022;-61
2021/03/21 02:10:51;;;;;;;94.05;56.03;;;17.50;40.30;;;;;;5041688;28;20831;-63
2021/03/21 02:13:39;;;;;;;94.45;54.25;;;17.60;40.30;;;;;;5041866;28;20061;-63
2021/03/21 02:16:12;;;;;;;90.63;53.17;;;17.70;40.10;;;;;;5038622;28;20030;-61
2021/03/21 02:19:08;;;;;;;91.97;53.28;;;17.80;40.20;;;;;;5041035;28;20021;-62
2021/03/21 02:21:56;;;;;;;87.85;51.78;;;17.90;40.10;;;;;;5042349;28;20021;-62
2021/03/21 02:24:52;;;;;;;90.88;50.80;;;18.10;40.00;;;;;;5046699;28;20111;-62
2021/03/21 02:27:38;;;;;;;88.70;49.72;;;18.10;40.10;;;;;;5052123;28;20033;-62
2021/03/21 02:30:09;;;;;;;86.07;49.83;;;18.10;40.40;;;;;;5014046;28;20064;-61
2021/03/21 02:32:56;;;;;;;82.95;45.80;;;18.10;40.60;;;;;;5057283;28;20039;-61
2021/03/21 02:35:30;;;;;;;80.90;45.83;;;18.20;40.60;;;;;;5057294;28;20043;-61
2021/03/21 02:38:09;;;;;;;76.57;47.63;;;18.30;40.40;;;;;;5055466;28;20029;-62
2021/03/21 02:40:40;;;;;;;74.50;45.53;;;18.30;40.40;;;;;;5054978;28;20052;-62
2021/03/21 02:43:36;;;;;;;77.53;46.10;;;18.30;40.30;;;;;;5054662;28;20028;-62
2021/03/21 02:46:09;;;;;;;73.05;43.95;;;18.40;40.30;;;;;;5054859;28;20029;-62
2021/03/21 02:48:41;;;;;;;74.55;43.25;;;18.40;40.40;;;;;;5055622;28;20033;-62
2021/03/21 02:51:12;;;;;;;69.32;43.53;;;18.30;40.60;;;;;;5055515;28;20020;-62
2021/03/21 02:53:45;;;;;;;71.15;40.55;;;18.30;40.70;;;;;;5056465;28;20045;-61
2021/03/21 02:56:16;;;;;;;70.93;41.40;;;18.30;41.30;;;;;;5057102;28;20105;-61
2021/03/21 02:58:47;;;;;;;67.35;41.38;;;18.20;40.80;;;;;;5056887;28;20385;-61
2021/03/21 03:01:45;;;;;;;69.90;40.85;;;18.10;41.00;;;;;;5056760;28;20380;-61
2021/03/21 03:04:17;;;;;;;66.13;37.67;;;18.10;40.90;;;;;;5043153;28;20374;-61
2021/03/21 03:07:02;;;;;;;62.70;38.10;;;18.10;41.00;;;;;;5056659;28;20036;-61
2021/03/21 03:09:41;;;;;;;64.55;38.53;;;18.00;41.20;;;;;;5056619;28;20025;-61
2021/03/21 03:12:26;;;;;;;68.30;36.80;;;18.00;41.30;;;;;;5056363;28;20036;-61
2021/03/21 03:14:52;;;;;;;64.15;36.45;;;18.00;41.40;;;;;;5056691;28;20071;-61
2021/03/21 03:17:41;;;;;;;61.95;36.80;;;17.90;41.40;;;;;;5056465;28;20057;-62
2021/03/21 03:20:19;;;;;;;60.63;36.08;;;18.00;41.60;;;;;;5056833;28;20432;-61
2021/03/21 03:23:06;;;;;;;56.42;33.58;;;17.90;41.60;;;;;;5056237;28;20036;-61
2021/03/21 03:25:41;;;;;;;58.67;35.30;;;17.90;41.60;;;;;;5056103;28;20052;-62
2021/03/21 03:28:17;;;;;;;59.97;35.13;;;17.90;41.80;;;;;;5056287;28;20040;-61
2021/03/21 03:30:58;;;;;;;57.17;31.80;;;17.90;42.00;;;;;;5056154;28;20036;-61
2021/03/21 03:33:24;;;;;;;54.85;32.22;;;17.90;42.00;;;;;;5056387;28;20029;-61
2021/03/21 03:35:50;;;;;;;59.33;32.78;;;18.00;41.80;;;;;;5056217;28;20533;-61
2021/03/21 03:38:16;;;;;;;54.20;31.80;;;18.00;41.70;;;;;;5056003;28;20124;-61
2021/03/21 03:40:45;;;;;;;55.42;33.20;;;18.00;41.70;;;;;;5056513;28;20065;-61
2021/03/21 03:43:40;;;;;;;47.83;29.88;;;18.00;41.80;;;;;;5055961;28;20032;-61
2021/03/21 03:46:31;;;;;;;49.47;31.08;;;18.00;41.80;;;;;;5042926;28;20048;-61
2021/03/21 03:49:22;;;;;;;45.90;30.15;;;17.90;41.90;;;;;;5056207;28;20025;-62
2021/03/21 03:52:26;;;;;;;50.10;30.45;;;17.80;42.10;;;;;;5055937;28;20048;-61
2021/03/21 03:55:15;;;;;;;48.60;28.80;;;17.80;42.30;;;;;;4993903;28;20054;-62
2021/03/21 03:57:45;;;;;;;49.88;30.60;;;17.70;42.40;;;;;;5053663;28;20102;-61
2021/03/21 04:00:14;;;;;;;;;;;17.70;42.50;;;;;;5056092;28;20036;-61
2021/03/21 04:02:53;;;;;;;44.45;24.92;;;17.60;42.60;;;;;;5055695;28;20003;-61
2021/03/21 04:05:47;;;;;;;43.08;27.05;;;17.60;42.60;;;;;;5055286;28;20035;-62
2021/03/21 04:08:21;;;;;;;43.58;27.20;;;17.50;42.80;;;;;;5049782;28;20041;-61
2021/03/21 04:11:29;;;;;;;46.58;25.95;;;17.50;42.90;;;;;;5055545;28;20029;-61
2021/03/21 04:14:03;;;;;;;41.80;24.48;;;17.40;42.90;;;;;;4993789;28;20157;-61
2021/03/21 04:16:39;;;;;;;41.80;25.73;;;17.40;43.00;;;;;;5048987;28;20388;-61
2021/03/21 04:19:11;;;;;;;42.95;24.77;;;17.30;43.20;;;;;;5055302;28;20029;-61
2021/03/21 04:21:54;;;;;;;38.28;24.10;;;17.30;43.20;;;;;;5055208;28;20033;-61
2021/03/21 04:24:44;;;;;;;40.83;25.13;;;17.30;43.20;;;;;;5055208;28;20033;-61
2021/03/21 04:27:17;;;;;;;43.15;22.52;;;17.20;43.30;;;;;;5054924;28;20464;-61
2021/03/21 04:30:08;;;;;;;40.28;24.42;;;17.20;43.50;;;;;;5055265;28;20029;-61
2021/03/21 04:32:42;;;;;;;37.50;23.08;;;17.20;43.60;;;;;;5054919;28;20029;-61
2021/03/21 04:35:12;;;;;;;38.92;22.25;;;17.20;43.50;;;;;;5055077;28;20040;-61
2021/03/21 04:37:41;;;;;;;35.10;21.90;;;17.20;43.60;;;;;;5055009;28;20483;-61
2021/03/21 04:40:09;;;;;;;38.33;21.60;;;17.10;43.60;;;;;;5055072;28;20025;-61
2021/03/21 04:43:05;;;;;;;36.60;21.25;;;17.20;43.70;;;;;;5054834;28;20025;-61
2021/03/21 04:45:35;;;;;;;40.53;21.38;;;17.30;43.50;;;;;;5053023;28;20048;-61
2021/03/21 04:48:04;;;;;;;38.65;21.05;;;17.30;43.50;;;;;;5054758;28;20461;-61
2021/03/21 04:50:31;;;;;;;36.10;21.45;;;17.40;43.30;;;;;;5054470;28;20029;-61
2021/03/21 04:53:18;;;;;;;35.47;21.02;;;17.50;43.20;;;;;;5054271;28;20057;-61
2021/03/21 04:55:56;;;;;;;36.50;20.20;;;17.60;43.00;;;;;;5055280;28;20118;-61
2021/03/21 04:58:41;;;;;;;32.53;20.10;;;17.70;42.90;;;;;;5055012;28;20461;-61
2021/03/21 05:01:16;;;;;;;31.13;18.70;;;17.80;42.80;;;;;;5054463;28;20029;-61
2021/03/21 05:03:47;;;;;;;35.42;19.63;;;17.90;42.60;;;;;;5054436;28;20428;-61
2021/03/21 05:06:35;;;;;;;28.35;17.50;;;17.90;42.50;;;;;;5055077;28;20025;-61
2021/03/21 05:09:06;;;;;;;28.73;18.73;;;18.10;42.40;;;;;;5044996;28;20039;-61
2021/03/21 05:11:37;;;;;;;;;;;18.20;42.20;;;;;;5054810;28;20029;-61
2021/03/21 05:14:07;;;;;;;27.98;16.13;;;18.20;42.10;;;;;;5054820;28;19904;-61
2021/03/21 05:16:52;;;;;;;26.77;16.13;;;18.30;41.90;;;;;;5054726;28;20040;-61
2021/03/21 05:19:31;;;;;;;31.13;17.60;;;18.40;41.90;;;;;;5054347;28;20388;-61
2021/03/21 05:22:13;;;;;;;27.38;16.70;;;18.50;42.40;;;;;;5054172;28;20441;-61
2021/03/21 05:24:52;;;;;;;30.20;17.58;;;18.50;41.60;;;;;;5054041;28;20032;-61
2021/03/21 05:27:25;;;;;;;28.67;15.77;;;18.60;41.60;;;;;;5054555;28;20036;-61
2021/03/21 05:30:25;;;;;;;27.70;16.42;;;18.60;41.40;;;;;;5053941;28;20039;-62
2021/03/21 05:32:52;;;;;;;23.23;15.35;;;18.80;41.30;;;;;;5021262;28;20492;-62
2021/03/21 05:35:38;;;;;;;26.98;15.82;;;18.80;41.20;;;;;;5053882;28;20035;-62
2021/03/21 05:38:53;;;;;;;25.63;15.95;;;18.70;41.50;;;;;;5053975;28;20515;-61
2021/03/21 05:41:31;;;;;;;25.23;15.93;;;18.80;41.50;;;;;;5020090;28;20491;-61
2021/03/21 05:44:19;;;;;;;27.15;14.95;;;18.90;41.50;;;;;;5054125;28;20092;-61
2021/03/21 05:46:50;;;;;;;24.50;15.10;;;18.90;41.40;;;;;;5053969;28;20036;-62
2021/03/21 05:49:50;;;;;;;23.40;14.77;;;19.00;41.30;;;;;;5053491;28;20025;-62
2021/03/21 05:52:34;;;;;;;23.83;14.18;;;19.10;41.10;;;;;;5054085;28;20033;-62
2021/03/21 05:55:21;;;;;;;21.25;13.80;;;19.20;40.80;;;;;;5053501;28;20374;-62
2021/03/21 05:58:07;;;;;;;25.23;13.85;;;19.30;40.60;;;;;;5052894;28;20048;-62
2021/03/21 06:01:10;;;;;;;22.73;13.02;;;19.40;40.50;;;;;;5053572;28;20024;-62
2021/03/21 06:04:10;;;;;;;23.15;14.25;;;19.30;40.50;;;;;;5053527;28;20044;-62
2021/03/21 06:07:03;;;;;;;22.13;13.43;;;19.30;40.60;;;;;;5053644;28;20039;-61
2021/03/21 06:09:58;;;;;;;22.05;13.63;;;19.30;40.70;;;;;;5053716;28;20032;-61
2021/03/21 06:12:39;;;;;;;20.10;12.40;;;19.20;40.90;;;;;;5051540;28;20033;-61
2021/03/21 06:15:39;;;;;;;18.73;11.57;;;19.10;41.00;;;;;;5053524;28;20029;-61
2021/03/21 06:18:25;;;;;;;21.77;12.02;;;19.10;41.20;;;;;;5053545;28;20033;-61
2021/03/21 06:21:10;;;;;;;18.58;11.82;;;19.00;41.20;;;;;;5053701;28;20112;-61
2021/03/21 06:24:08;;;;;;;19.30;11.32;;;19.00;41.30;;;;;;5053718;28;20033;-62
2021/03/21 06:26:53;;;;;;;21.75;12.02;;;18.90;41.50;;;;;;5053440;28;20025;-61
2021/03/21 06:29:57;;;;;;;21.42;12.43;;;18.90;41.70;;;;;;5053366;28;20036;-64
2021/03/21 06:32:44;;;;;;;18.33;10.93;;;18.90;41.80;;;;;;5053258;28;20025;-62
2021/03/21 06:35:23;;;;;;;18.35;10.75;;;18.80;41.90;;;;;;5053649;28;20428;-61
2021/03/21 06:38:09;;;;;;;17.85;11.18;;;18.80;42.00;;;;;;5053050;28;20358;-63
2021/03/21 06:40:51;;;;;;;16.73;9.93;;;18.60;42.30;;;;;;5053375;28;20033;-63
2021/03/21 06:43:46;;;;;;;16.83;11.05;;;18.70;42.30;;;;;;5053180;28;20029;-64
2021/03/21 06:46:38;;;;;;;16.92;10.93;;;18.80;42.10;;;;;;5030853;28;20037;-63
2021/03/21 06:49:37;;;;;;;15.98;10.93;;;18.90;42.00;;;;;;5053045;28;20025;-63
2021/03/21 06:52:15;;;;;;;16.23;9.20;;;18.90;42.00;;;;;;5053192;28;20025;-63
2021/03/21 06:54:50;;;;;;;15.15;9.52;;;18.70;42.10;;;;;;5053033;28;20048;-63
2021/03/21 06:57:40;;;;;;;15.00;9.43;;;18.70;42.30;;;;;;5053105;28;20032;-63
2021/03/21 07:00:27;;;;;;;15.15;9.35;;;18.60;42.40;;;;;;5052964;28;20500;-63
2021/03/21 07:03:13;;;;;;;15.85;8.82;;;18.60;42.50;;;;;;5053255;28;20029;-63
2021/03/21 07:06:30;;;;;;;14.27;8.98;;;18.50;42.70;;;;;;5053192;28;20029;-63
2021/03/21 07:08:59;;;;;;;16.48;9.52;;;18.40;42.70;;;;;;5031183;28;20488;-61
2021/03/21 07:12:06;;;;;;;17.45;9.85;;;18.40;42.90;;;;;;5056459;28;20503;-61
2021/03/21 07:15:08;;;;;;;14.85;8.68;;;18.40;43.00;;;;;;5056631;28;20033;-64
2021/03/21 07:17:41;;;;;;;17.23;9.95;;;18.40;43.10;;;;;;5056266;28;20032;-61
2021/03/21 07:20:25;;;;;;;16.02;8.80;;;18.40;43.00;;;;;;5056591;28;20036;-60
2021/03/21 07:23:10;;;;;;;15.85;8.63;;;18.50;42.90;;;;;;5056445;28;20032;-63
2021/03/21 07:26:13;;;;;;;14.82;8.20;;;18.50;42.70;;;;;;5056304;28;20040;-61
2021/03/21 07:29:03;;;;;;;14.25;7.80;;;18.60;42.60;;;;;;5056338;28;20184;-63
2021/03/21 07:31:59;;;;;;;12.32;7.20;;;18.70;42.50;;;;;;5055984;28;20369;-63
2021/03/21 07:34:49;;;;;;;13.63;8.18;;;18.70;42.50;;;;;;5056537;28;20045;-61
2021/03/21 07:37:19;;;;;;;14.23;7.93;;;18.80;42.30;;;;;;5056034;28;20028;-63
2021/03/21 07:39:48;;;;;;;12.68;7.95;;;18.90;42.30;;;;;;5056220;28;20025;-63
2021/03/21 07:42:37;;;;;;;13.43;7.97;;;18.90;42.30;;;;;;5056282;28;20100;-63
2021/03/21 07:45:26;;;;;;;15.15;8.10;;;18.80;42.40;;;;;;5056261;28;20037;-63
2021/03/21 07:48:07;;;;;;;13.95;8.55;;;18.90;42.60;;;;;;5050549;28;20104;-63
2021/03/21 07:50:34;;;;;;;;;;;18.90;43.10;;;;;;5056321;28;20108;-63
2021/03/21 07:53:27;;;;;;;12.07;6.68;;;19.00;42.20;;;;;;5055542;28;20465;-63
2021/03/21 07:56:23;;;;;;;10.05;6.75;;;19.00;42.20;;;;;;5055565;28;20507;-63
2021/03/21 07:59:22;;;;;;;11.60;6.93;;;18.90;42.10;;;;;;5055823;28;20029;-63
2021/03/21 08:01:47;;;;;;;11.15;6.78;;;18.90;42.20;;;;;;5047763;28;20048;-63
2021/03/21 08:04:33;;;;;;;11.10;6.57;;;18.90;42.20;;;;;;5055543;28;20033;-63
2021/03/21 08:07:11;;;;;;;11.00;7.50;;;18.80;42.20;;;;;;5055112;28;20489;-63
2021/03/21 08:09:39;;;;;;;10.55;6.35;;;18.80;42.40;;;;;;5055757;28;20033;-63
2021/03/21 08:12:19;;;;;;;14.23;7.05;;;18.70;42.50;;;;;;5055326;28;20037;-63
2021/03/21 08:14:53;;;;;;;12.65;8.10;;;18.70;42.60;;;;;;5055158;28;20041;-63
2021/03/21 08:17:28;;;;;;;11.43;6.60;;;18.70;42.70;;;;;;5055438;28;20033;-63
2021/03/21 08:20:00;;;;;;;12.02;7.22;;;18.60;42.80;;;;;;5054371;28;20029;-63
2021/03/21 08:22:30;;;;;;;10.80;5.93;;;18.60;42.90;;;;;;5055279;28;20026;-64
2021/03/21 08:25:14;;;;;;;15.80;6.28;;;18.60;43.00;;;;;;5055071;28;20033;-62
2021/03/21 08:27:40;;;;;;;13.20;5.95;;;18.60;43.10;;;;;;5055671;28;20029;-62
2021/03/21 08:30:11;;;;;;;11.23;6.35;;;18.50;43.20;;;;;;5054905;28;20024;-62
2021/03/21 08:32:53;;;;;;;11.10;6.22;;;18.50;43.20;;;;;;5055037;28;20036;-62
2021/03/21 08:35:22;;;;;;;14.23;6.32;;;18.50;43.20;;;;;;5055024;28;20033;-62
2021/03/21 08:37:50;;;;;;;8.38;5.07;;;18.50;43.30;;;;;;5054663;28;20037;-62
2021/03/21 08:40:33;;;;;;;12.13;5.50;;;18.40;43.30;;;;;;5055451;28;20064;-66
2021/03/21 08:43:21;;;;;;;10.38;5.57;;;18.40;43.70;;;;;;5055088;28;20469;-62
2021/03/21 08:46:14;;;;;;;13.93;6.55;;;18.40;43.70;;;;;;5054649;28;20037;-62
2021/03/21 08:48:41;;;;;;;11.25;6.28;;;18.50;43.40;;;;;;5055282;28;20071;-63
2021/03/21 08:51:12;;;;;;;12.85;5.05;;;18.60;43.30;;;;;;5054995;28;20514;-64
2021/03/21 08:53:58;;;;;;;9.55;5.50;;;18.60;43.30;;;;;;5054362;28;20056;-64
2021/03/21 08:56:37;;;;;;;12.65;6.35;;;18.60;43.40;;;;;;5054578;28;20021;-65
2021/03/21 08:59:39;;;;;;;8.88;5.43;;;18.60;43.60;;;;;;5055260;28;20025;-63
2021/03/21 09:02:13;;;;;;;8.10;5.20;;;18.60;43.60;;;;;;5054588;28;20052;-64
2021/03/21 09:05:01;;;;;;;12.68;5.85;;;18.70;43.50;;;;;;5054402;28;20411;-63
2021/03/21 09:07:51;;;;;;;9.45;5.25;;;18.70;43.30;;;;;;5054701;28;20025;-66
2021/03/21 09:10:32;;;;;;;10.30;5.60;;;18.70;43.10;;;;;;5048819;28;20037;-65
2021/03/21 09:13:06;;;;;;;7.78;4.90;;;18.80;43.20;;;;;;5054050;28;20538;-63
2021/03/21 09:15:36;;;;;;;9.70;4.65;;;18.80;43.10;;;;;;5054310;28;20029;-70
2021/03/21 09:18:17;;;;;;;9.88;5.22;;;18.90;43.10;;;;;;5054191;28;20103;-63
2021/03/21 09:21:14;;;;;;;10.63;5.68;;;19.00;43.20;;;;;;5054132;28;20029;-65
2021/03/21 09:23:40;;;;;;;12.80;5.85;;;19.00;43.90;;;;;;5054633;28;20116;-69
2021/03/21 09:26:24;;;;;;;10.43;5.72;;;19.00;43.30;;;;;;5053872;28;20017;-66
2021/03/21 09:28:57;;;;;;;12.40;5.10;;;19.10;42.20;;;;;;5054305;28;20029;-63
2021/03/21 09:31:24;;;;;;;8.77;4.55;;;19.00;42.40;;;;;;5053983;28;20036;-63
2021/03/21 09:34:05;;;;;;;9.77;5.18;;;19.00;42.80;;;;;;5053807;28;20037;-63
2021/03/21 09:36:45;;;;;;;8.75;4.85;;;19.00;43.00;;;;;;5054127;28;20029;-63
2021/03/21 09:39:24;;;;;;;10.30;4.72;;;19.00;43.00;;;;;;5054070;28;20032;-63
2021/03/21 09:41:51;;;;;;;8.82;4.55;;;18.90;43.30;;;;;;5053991;28;20033;-60
2021/03/21 09:44:27;;;;;;;9.30;5.68;;;18.90;42.30;;;;;;5053349;28;20158;-61
2021/03/21 09:47:11;;;;;;;9.82;5.80;;;18.70;41.80;;;;;;5053854;28;20025;-62
2021/03/21 09:50:11;;;;;;;9.90;4.90;;;18.60;40.70;;;;;;5053789;28;20440;-63
2021/03/21 09:52:45;;;;;;;9.17;5.00;;;18.70;41.10;;;;;;5053441;28;20461;-63
2021/03/21 09:55:34;;;;;;;11.45;5.22;;;18.80;41.40;;;;;;5053270;28;20484;-64
2021/03/21 09:58:47;;;;;;;79.10;39.65;;;18.90;40.50;;;;;;5031886;28;20547;-64
2021/03/21 10:01:27;;;;;;;60.25;29.60;;;18.90;39.50;;;;;;5015089;28;20033;-67
2021/03/21 10:04:01;;;;;;;46.95;26.63;;;18.90;38.00;;;;;;5033510;28;20029;-66
2021/03/21 10:06:35;;;;;;;59.35;34.67;;;18.90;37.30;;;;;;5033695;28;20026;-65
2021/03/21 10:09:18;;;;;;;68.47;40.50;;;18.90;36.90;;;;;;5033581;28;20036;-65
2021/03/21 10:11:47;;;;;;;83.47;47.42;;;19.00;36.80;;;;;;5033511;28;20075;-65
2021/03/21 10:14:22;;;;;;;86.75;53.75;;;19.00;36.20;;;;;;5033454;28;20140;-65
2021/03/21 10:16:53;;;;;;;68.05;40.70;;;19.10;36.00;;;;;;5032369;28;20358;-65
2021/03/21 10:19:56;;;;;;;52.15;29.73;;;19.10;35.70;;;;;;5033549;28;20021;-66
2021/03/21 10:22:21;;;;;;;37.25;23.02;;;19.10;35.20;;;;;;5033796;28;20108;-63
2021/03/21 10:24:53;;;;;;;33.50;19.70;;;19.10;35.30;;;;;;5033035;28;20112;-62
2021/03/21 10:27:24;;;;;;;27.05;16.40;;;19.00;35.50;;;;;;5033298;28;20029;-60
2021/03/21 10:30:01;;;;;;;;;;;18.70;35.10;;;;;;5033770;28;20033;-62
2021/03/21 10:32:32;;;;;;;25.65;10.80;;;18.60;34.90;;;;;;5033334;28;19905;-61
2021/03/21 10:34:59;;;;;;;23.27;9.10;;;18.60;35.30;;;;;;5033957;28;20037;-59
2021/03/21 10:37:41;;;;;;;18.50;9.10;;;18.70;35.20;;;;;;5033246;28;20076;-59
2021/03/21 10:40:26;;;;;;;18.17;9.27;;;18.80;35.40;;;;;;5033111;28;20060;-60
2021/03/21 10:42:53;;;;;;;17.10;8.23;;;18.90;36.00;;;;;;5022499;28;20040;-59
2021/03/21 10:45:39;;;;;;;16.38;8.63;;;18.90;36.60;;;;;;5037207;28;20029;-59
2021/03/21 10:48:08;;;;;;;13.10;6.95;;;19.10;37.00;;;;;;5026451;28;20458;-60
2021/03/21 10:50:33;;;;;;;18.05;7.43;;;19.10;37.00;;;;;;5036915;28;20428;-60
2021/03/21 10:53:23;;;;;;;19.98;7.32;;;19.30;37.20;;;;;;5036612;28;20052;-60
2021/03/21 10:56:06;;;;;;;16.95;7.32;;;19.50;37.10;;;;;;5037007;28;20036;-60
2021/03/21 10:58:52;;;;;;;14.65;6.82;;;19.50;36.80;;;;;;5036859;28;20104;-60
2021/03/21 11:01:18;;;;;;;20.05;7.03;;;19.60;36.60;;;;;;5036650;28;20116;-62
2021/03/21 11:03:55;;;;;;;13.00;6.63;;;19.60;36.70;;;;;;5037015;28;20117;-60
2021/03/21 11:06:22;;;;;;;12.73;6.78;;;19.70;36.90;;;;;;5036763;28;20033;-62
2021/03/21 11:08:49;;;;;;;13.40;5.70;;;19.70;36.90;;;;;;5037024;28;20080;-62
2021/03/21 11:11:21;;;;;;;11.32;6.20;;;19.60;37.00;;;;;;5036868;28;20033;-62
2021/03/21 11:13:48;;;;;;;11.73;6.10;;;19.60;37.10;;;;;;5036710;28;20030;-62
2021/03/21 11:16:14;;;;;;;9.38;5.65;;;19.60;37.20;;;;;;5036932;28;20032;-62
2021/03/21 11:18:43;;;;;;;17.77;6.30;;;19.60;37.40;;;;;;5036717;28;20060;-62
2021/03/21 11:21:14;;;;;;;11.23;6.13;;;19.50;37.50;;;;;;5036468;28;20053;-61
2021/03/21 11:23:46;;;;;;;10.93;5.72;;;19.50;37.60;;;;;;5036202;28;20052;-62
2021/03/21 11:26:31;;;;;;;11.75;6.55;;;19.50;38.10;;;;;;5036476;28;20084;-62
2021/03/21 11:29:07;;;;;;;9.48;5.05;;;19.40;38.20;;;;;;5036150;28;20025;-62
2021/03/21 11:31:36;;;;;;;14.02;5.10;;;19.40;38.40;;;;;;5036363;28;20394;-62
2021/03/21 11:34:16;;;;;;;11.65;5.78;;;19.30;38.50;;;;;;5036416;28;20041;-61
2021/03/21 11:36:42;;;;;;;9.57;5.38;;;19.30;38.70;;;;;;5036191;28;20021;-62
2021/03/21 11:39:42;;;;;;;10.05;5.00;;;19.20;38.80;;;;;;5036218;28;20433;-59
2021/03/21 11:42:38;;;;;;;9.82;5.35;;;19.20;39.00;;;;;;5036359;28;20429;-59
2021/03/21 11:45:28;;;;;;;10.43;5.57;;;19.10;38.60;;;;;;5036575;28;20039;-59
2021/03/21 11:47:57;;;;;;;11.10;5.47;;;19.10;37.80;;;;;;5034746;28;20148;-59
2021/03/21 11:50:31;;;;;;;9.88;4.55;;;19.10;37.40;;;;;;5036063;28;20425;-60
2021/03/21 11:52:59;;;;;;;14.40;5.45;;;19.10;37.30;;;;;;5035984;28;20045;-59
2021/03/21 11:55:29;;;;;;;8.90;5.70;;;19.10;36.90;;;;;;5034641;28;20114;-59
2021/03/21 11:58:07;;;;;;;;;;;19.00;36.40;;;;;;5036286;28;20104;-59
2021/03/21 12:00:36;;;;;;;10.90;4.80;;;18.90;36.20;;;;;;5035896;28;19905;-60
2021/03/21 12:03:21;;;;;;;10.43;5.35;;;18.70;34.60;;;;;;5033124;28;20126;-62
2021/03/21 12:06:30;;;;;;;9.32;5.35;;;18.40;35.70;;;;;;5033966;28;20061;-62
2021/03/21 12:08:59;;;;;;;10.40;5.90;;;18.00;35.30;;;;;;5032866;28;20034;-60
2021/03/21 12:11:24;;;;;;;110.25;57.80;;;18.00;35.50;;;;;;5034946;28;20124;-61
2021/03/21 12:13:53;;;;;;;98.20;53.17;;;18.10;35.50;;;;;;5035123;28;20119;-62
2021/03/21 12:16:37;;;;;;;72.43;40.65;;;18.30;35.40;;;;;;5034554;28;20155;-62
2021/03/21 12:19:06;;;;;;;61.90;33.47;;;18.40;35.40;;;;;;5043088;28;20029;-61
2021/03/21 12:21:37;;;;;;;96.55;54.72;;;18.50;35.50;;;;;;5045600;28;20139;-62
2021/03/21 12:24:13;;;;;;;114.00;59.28;;;18.60;35.10;;;;;;5043995;28;20033;-62
2021/03/21 12:26:44;;;;;;;94.78;52.42;;;18.80;34.90;;;;;;5044606;28;20064;-61
2021/03/21 12:29:25;;;;;;;102.47;61.03;;;18.90;34.90;;;;;;5043008;28;20041;-61
2021/03/21 12:31:53;;;;;;;92.22;52.60;;;19.00;34.70;;;;;;5043613;28;20049;-62
2021/03/21 12:34:34;;;;;;;86.22;48.00;;;19.10;34.40;;;;;;5044904;28;20058;-62
2021/03/21 12:37:14;;;;;;;64.78;39.67;;;19.10;34.40;;;;;;5041637;28;20025;-62
2021/03/21 12:39:46;;;;;;;55.60;31.40;;;19.10;34.30;;;;;;5041967;28;20021;-62
2021/03/21 12:42:27;;;;;;;45.58;28.10;;;19.10;34.30;;;;;;5054715;28;20032;-61
2021/03/21 12:45:23;;;;;;;50.47;26.13;;;19.00;35.00;;;;;;5054081;28;20104;-62
2021/03/21 12:47:55;;;;;;;40.13;22.35;;;19.10;35.30;;;;;;5055468;28;20060;-62
2021/03/21 12:50:38;;;;;;;34.72;20.30;;;19.20;35.00;;;;;;5054838;28;20028;-61
2021/03/21 12:53:10;;;;;;;35.50;18.73;;;19.30;34.80;;;;;;5053848;28;20053;-61
2021/03/21 12:55:37;;;;;;;30.55;17.85;;;19.20;34.90;;;;;;5054651;28;20029;-62
2021/03/21 12:58:02;;;;;;;28.38;16.20;;;19.20;34.70;;;;;;5054723;28;20112;-61
2021/03/21 13:00:32;;;;;;;31.70;15.40;;;19.20;34.90;;;;;;5054179;28;20112;-62
2021/03/21 13:03:02;;;;;;;24.55;14.85;;;19.10;35.00;;;;;;5054301;28;20047;-61
2021/03/21 13:05:38;;;;;;;27.25;14.10;;;19.00;35.30;;;;;;5054473;28;20098;-60
2021/03/21 13:08:05;;;;;;;24.85;13.48;;;18.90;35.50;;;;;;5053357;28;20039;-60
2021/03/21 13:10:34;;;;;;;26.60;14.43;;;19.00;35.80;;;;;;5054413;28;20025;-60
2021/03/21 13:13:05;;;;;;;23.02;13.77;;;18.90;36.10;;;;;;5054024;28;20021;-62
2021/03/21 13:15:31;;;;;;;20.65;12.75;;;18.90;36.30;;;;;;5053811;28;20083;-61
2021/03/21 13:17:57;;;;;;;20.58;12.18;;;18.80;36.50;;;;;;5054295;28;20412;-60
2021/03/21 13:20:23;;;;;;;22.02;13.18;;;18.80;36.80;;;;;;5054532;28;20036;-61
2021/03/21 13:22:49;;;;;;;21.55;12.30;;;18.70;37.00;;;;;;5053753;28;20029;-60
2021/03/21 13:25:23;;;;;;;22.30;12.00;;;18.70;37.30;;;;;;5053776;28;20089;-61